• Join FlightAware (Why Join?)
  • Login
  • US Flag 
05:15PM EDT


 

Airport Tracker/Info


-or-


 

Live Flight TrackerFlight Track Log ✈ DAL6139 ✈ 15-Jun-2013 ✈ CYUL - KLGA

Flight Track Log - Related Links

Times and Time Zones

All times are in EDT time to prevent confusion due to time zone crossing. See the DAL6139 flight status page for this flight to view local times or setup timezone preferences in your user account.

Time Position Orientation Groundspeed Altitude Reporting Facility
EDT Latitude Longitude Course Direction KTS MPH feet Rate Location/Type
08:56PM 45.4500 -73.7167 207° Southwest 120 138 1,100  Level Montreal Center
08:57PM 45.4167 -73.7667 226° Southwest 190 219 4,100 3,000 Climbing Montreal Center
08:58PM 45.3500 -73.8000 199° South 250 288 7,100 2,760 Climbing Montreal Center
08:59PM 45.1835 -73.9404 207° Southwest  Level FlightAware Approximate
08:59PM 45.2667 -73.7833 172° South 280 322 9,700  Level Montreal Center
09:00PM 45.0882 -74.0085 207° Southwest  Level FlightAware Approximate
09:00PM 45.1833 -73.7833 180° South 330 380 11,600  Level Montreal Center
09:01PM 44.9929 -74.0765 207° Southwest  Level FlightAware Approximate
09:01PM 45.0833 -73.7833 180° South 370 426 13,000  Level Montreal Center
09:02PM 44.9667 -73.7833 180° South 390 449 14,600 1,500 Climbing Montreal Center
09:03PM 44.8500 -73.8000 186° South 400 460 16,100 1,500 Climbing Montreal Center
09:04PM 44.7500 -73.7833 173° South 410 472 17,600 1,500 Climbing Montreal Center
09:05PM 44.6333 -73.7833 180° South 420 483 19,200 1,500 Climbing Montreal Center
09:06PM 44.5167 -73.7833 180° South 430 495 20,700 1,500 Climbing Montreal Center
09:07PM 44.3833 -73.7833 180° South 440 506 22,200 1,260 Climbing Montreal Center
09:08PM 44.2667 -73.8000 186° South 450 518 23,300 1,080 Climbing Montreal Center
09:09PM 44.1333 -73.7833 175° South 460 529 24,400 1,020 Climbing Montreal Center
09:10PM 44.0000 -73.7833 180° South 460 529 25,400 960 Climbing Montreal Center
09:11PM 43.8833 -73.7833 180° South 460 529 26,400 960 Climbing Montreal Center
09:12PM 43.7500 -73.8000 185° South 460 529 27,400 780 Climbing Montreal Center
09:13PM 43.6167 -73.8000 180° South 460 529 28,000 300 Climbing Montreal Center
09:14PM 43.4833 -73.8000 180° South 470 541 28,000 -360 Level Montreal Center
09:15PM 43.3383 -73.8047 181° South 475 547 27,300 -840 Descending Boston Center
09:16PM 43.1989 -73.8044 180° South 491 565 26,300 -1,020 Descending Boston Center
09:17PM 43.0611 -73.8042 180° South 496 571 25,300 -1,020 Descending Boston Center
09:18PM 42.9258 -73.8069 181° South 496 571 24,300 -1,020 Descending Boston Center
09:19PM 42.7964 -73.8067 180° South 482 555 23,300 -960 Descending Boston Center
09:20PM 42.6675 -73.7869 174° South 474 545 22,400 -960 Descending Boston Center
09:21PM 42.5386 -73.7644 173° South 474 545 21,400 -720 Descending Boston Center
09:22PM 42.4097 -73.7364 171° South 474 545 21,000 -600 Descending Boston Center
09:23PM 42.2828 -73.7086 171° South 469 540 20,300 -900 Descending Boston Center
09:24PM 42.1603 -73.6808 170° South 462 532 19,200 -1,080 Descending Boston Center
09:25PM 42.0331 -73.6811 180° South 462 532 18,200 -1,080 Descending Boston Center
09:26PM 41.9181 -73.7011 187° South 443 510 17,100 -1,200 Descending Boston Center
09:27PM 41.8014 -73.7211 187° South 436 502 15,900 -1,380 Descending Boston Center
09:28PM 41.7006 -73.7775 203° Southwest 405 466 14,400 -1,380 Descending Boston Center
09:30PM 41.5500 -73.8333 196° South 366 421 12,500 -1,380 Descending New York TRACON
09:31PM 41.4500 -73.8167 173° South 302 348 11,000 -1,740 Descending New York TRACON
09:32PM 41.3667 -73.8000 171° South 301 346 9,100 -960 Descending New York TRACON
09:33PM 41.3000 -73.7667 159° South 300 345 9,100  Level New York TRACON
09:34PM 41.2333 -73.7000 143° Southeast 309 356 9,100 -660 Level New York TRACON
09:35PM 41.1667 -73.6333 143° Southeast 297 342 7,800 -1,620 Descending New York TRACON
09:36PM 41.0833 -73.6500 189° South 264 304 5,900 -2,100 Descending New York TRACON
09:37PM 41.0167 -73.6833 201° Southwest 263 303 3,700 -1,440 Descending New York TRACON
09:38PM 40.9667 -73.7333 217° Southwest 240 276 3,100 -480 Descending New York TRACON
09:39PM 40.9000 -73.7667 201° Southwest 216 249 2,800 -300 Descending New York TRACON